Terminal Aerodrome Forecast
Issued by NWS

Home | Current Version | Previous Version | Text Only | Print | Product List | Glossary On
Versions: 1 2 3 4 5 6 7 8 9 10 11 12 13 14 15 16 17
000
FTUS44 KTSA 272300
TAFXNA
TAF
KXNA 272320Z 2800/2824 01006KT P6SM SCT250
     FM280200 VRB03KT P6SM BKN070
     FM281300 16007KT P6SM BKN060
     FM282000 14007KT P6SM SCT060=

USA.gov is the U.S. government's official web portal to all federal, state and local government web resources and services.